Time;durP1;ratioP1;P1;durP2;ratioP2;P2;SDS_P1;SDS_P2;PMS_P1;PMS_P2;Temp;Humidity;BMP_temperature;BMP_pressure;BME280_temperature;BME280_humidity;BME280_pressure;Samples;Min_cycle;Max_cycle;Signal;HPM_P1;HPM_P2
2023/04/11 00:02:40;;;;;;;5.32;2.72;;;;;;;;;;5038138;28;20435;-82
2023/04/11 00:05:08;;;;;;;4.85;2.40;;;;;;;;;;5035011;28;20530;-82
2023/04/11 00:07:59;;;;;;;5.30;2.53;;;;;;;;;;5030189;28;20033;-82
2023/04/11 00:10:27;;;;;;;4.32;2.40;;;;;;;;;;5035644;28;20483;-82
2023/04/11 00:12:56;;;;;;;5.60;2.42;;;;;;;;;;5035953;28;20064;-82
2023/04/11 00:15:31;;;;;;;4.57;2.17;;;;;;;;;;5036014;28;20049;-82
2023/04/11 00:17:59;;;;;;;4.25;2.42;;;;;;;;;;5037303;28;20037;-82
2023/04/11 00:20:31;;;;;;;4.13;2.40;;;;;;;;;;5033967;28;20045;-82
2023/04/11 00:23:03;;;;;;;5.53;2.70;;;;;;;;;;5035569;28;20091;-82
2023/04/11 00:25:31;;;;;;;4.10;2.20;;;;;;;;;;5035543;28;20034;-82
2023/04/11 00:28:24;;;;;;;3.85;2.30;;;;;;;;;;5036649;28;20228;-82
2023/04/11 00:30:51;;;;;;;4.85;2.42;;;;;;;;;;5034325;28;20060;-82
2023/04/11 00:33:19;;;;;;;6.25;2.40;;;;;;;;;;5036454;28;20307;-82
2023/04/11 00:35:47;;;;;;;4.55;2.30;;;;;;;;;;5033866;28;20064;-82
2023/04/11 00:38:15;;;;;;;5.05;2.50;;;;;;;;;;5021471;28;20036;-82
2023/04/11 00:40:43;;;;;;;5.15;2.50;;;;;;;;;;5034598;28;20110;-82
2023/04/11 00:43:15;;;;;;;4.63;2.15;;;;;;;;;;5038154;28;20037;-82
2023/04/11 00:45:47;;;;;;;5.53;2.70;;;;;;;;;;5036748;28;20041;-82
2023/04/11 00:48:16;;;;;;;6.63;2.40;;;;;;;;;;5017955;28;20395;-82
2023/04/11 00:51:07;;;;;;;4.50;2.25;;;;;;;;;;5032384;28;20044;-82
2023/04/11 00:53:40;;;;;;;5.82;2.58;;;;;;;;;;5029038;28;20666;-82
2023/04/11 00:56:10;;;;;;;5.38;2.67;;;;;;;;;;5018187;28;20033;-82
2023/04/11 00:58:39;;;;;;;5.63;2.58;;;;;;;;;;5051904;28;20040;-82
2023/04/11 01:01:10;;;;;;;4.30;2.28;;;;;;;;;;5037273;28;20438;-82
2023/04/11 01:03:44;;;;;;;5.65;2.53;;;;;;;;;;5038085;28;20049;-82
2023/04/11 01:06:13;;;;;;;6.50;3.08;;;;;;;;;;5035274;28;20124;-82
2023/04/11 01:08:46;;;;;;;4.35;2.50;;;;;;;;;;5032081;28;20144;-82
2023/04/11 01:11:16;;;;;;;4.80;2.28;;;;;;;;;;5017592;28;20457;-82
2023/04/11 01:14:09;;;;;;;4.68;2.50;;;;;;;;;;5034725;28;20110;-82
2023/04/11 01:16:37;;;;;;;4.85;2.42;;;;;;;;;;5034514;28;20398;-82
2023/04/11 01:19:06;;;;;;;5.00;2.58;;;;;;;;;;5034241;28;20046;-82
2023/04/11 01:21:35;;;;;;;5.72;2.88;;;;;;;;;;5034977;28;20045;-82
2023/04/11 01:24:27;;;;;;;8.05;2.65;;;;;;;;;;5052269;28;20155;-82
2023/04/11 01:27:00;;;;;;;7.13;2.70;;;;;;;;;;5056651;28;20049;-81
2023/04/11 01:29:27;;;;;;;8.02;2.20;;;;;;;;;;5040057;28;20060;-82
2023/04/11 01:32:00;;;;;;;4.68;1.98;;;;;;;;;;5040807;28;20037;-82
2023/04/11 01:37:26;;;;;;;4.78;2.25;;;;;;;;;;5039554;28;20045;-82
2023/04/11 01:39:53;;;;;;;4.43;2.35;;;;;;;;;;5037241;28;20060;-82
2023/04/11 01:42:31;;;;;;;5.75;2.83;;;;;;;;;;5040821;28;20474;-82
2023/04/11 01:45:31;;;;;;;7.38;2.70;;;;;;;;;;5038084;28;20033;-82
2023/04/11 01:48:05;;;;;;;5.78;2.50;;;;;;;;;;5039248;28;20069;-82
2023/04/11 01:50:33;;;;;;;4.70;2.35;;;;;;;;;;5036294;28;20044;-82
2023/04/11 01:53:05;;;;;;;7.30;2.92;;;;;;;;;;5040643;28;20466;-82
2023/04/11 01:55:33;;;;;;;6.43;2.72;;;;;;;;;;5039822;28;20046;-82
2023/04/11 01:58:01;;;;;;;7.63;2.50;;;;;;;;;;5037512;28;20124;-82
2023/04/11 02:00:29;;;;;;;5.22;2.22;;;;;;;;;;5021201;28;20541;-83
2023/04/11 02:03:02;;;;;;;5.00;2.28;;;;;;;;;;5040114;28;20038;-83
2023/04/11 02:05:55;;;;;;;5.93;2.40;;;;;;;;;;5042225;28;20065;-83
2023/04/11 02:08:23;;;;;;;4.85;2.13;;;;;;;;;;5036659;28;20083;-83
2023/04/11 02:14:42;;;;;;;5.95;2.40;;;;;;;;;;5038234;28;20431;-83
2023/04/11 02:17:11;;;;;;;7.75;2.90;;;;;;;;;;5021636;28;20566;-83
2023/04/11 02:20:05;;;;;;;5.22;2.08;;;;;;;;;;5036544;28;20029;-83
2023/04/11 02:23:03;;;;;;;5.75;2.10;;;;;;;;;;5034663;28;20033;-83
2023/04/11 02:25:35;;;;;;;4.82;2.33;;;;;;;;;;5052476;28;20091;-83
2023/04/11 02:28:03;;;;;;;4.25;1.95;;;;;;;;;;5035469;28;20036;-83
2023/04/11 02:30:55;;;;;;;5.80;2.30;;;;;;;;;;5049331;28;20025;-83
2023/04/11 02:33:29;;;;;;;4.88;1.67;;;;;;;;;;5049964;28;20049;-83
2023/04/11 02:35:57;;;;;;;5.32;1.75;;;;;;;;;;5031576;28;20436;-83
2023/04/11 02:38:25;;;;;;;4.43;2.15;;;;;;;;;;5028760;28;20038;-83
2023/04/11 02:40:59;;;;;;;3.47;1.85;;;;;;;;;;5034113;28;20065;-83
2023/04/11 02:43:27;;;;;;;3.35;1.50;;;;;;;;;;5030976;28;20126;-83
2023/04/11 02:46:00;;;;;;;4.43;1.90;;;;;;;;;;5039121;28;20038;-83
2023/04/11 02:48:39;;;;;;;4.65;1.55;;;;;;;;;;5037727;28;20033;-83
2023/04/11 02:51:07;;;;;;;4.30;1.60;;;;;;;;;;5019793;28;20048;-82
2023/04/11 02:54:01;;;;;;;4.45;1.48;;;;;;;;;;5036319;28;20033;-83
2023/04/11 02:56:29;;;;;;;3.20;1.50;;;;;;;;;;5037735;28;20411;-83
2023/04/11 02:58:57;;;;;;;3.80;1.60;;;;;;;;;;5019533;28;20043;-83
2023/04/11 03:01:49;;;;;;;3.20;1.58;;;;;;;;;;5038408;28;20495;-83
2023/04/11 03:04:21;;;;;;;3.70;1.60;;;;;;;;;;5020863;28;20041;-83
2023/04/11 03:07:02;;;;;;;4.22;1.60;;;;;;;;;;5039129;28;20033;-83
2023/04/11 03:09:29;;;;;;;3.47;1.75;;;;;;;;;;5019347;28;20048;-83
2023/04/11 03:11:57;;;;;;;4.88;1.80;;;;;;;;;;5039391;28;20052;-83
2023/04/11 03:14:49;;;;;;;3.17;1.50;;;;;;;;;;5035395;28;20233;-83
2023/04/11 03:23:31;;;;;;;4.57;2.25;;;;;;;;;;5037814;28;20037;-83
2023/04/11 03:26:04;;;;;;;4.03;1.75;;;;;;;;;;5053348;28;20072;-82
2023/04/11 03:28:33;;;;;;;4.35;1.70;;;;;;;;;;5034174;28;20568;-83
2023/04/11 03:31:01;;;;;;;3.67;1.38;;;;;;;;;;5039270;28;20041;-83
2023/04/11 03:33:53;;;;;;;3.63;1.17;;;;;;;;;;5053172;28;20128;-83
2023/04/11 03:36:28;;;;;;;4.53;1.00;;;;;;;;;;5037022;28;20039;-83
2023/04/11 03:39:01;;;;;;;3.70;1.00;;;;;;;;;;5032067;28;20053;-83
2023/04/11 03:41:29;;;;;;;2.15;1.08;;;;;;;;;;5053159;28;20508;-83
2023/04/11 03:43:57;;;;;;;3.00;1.20;;;;;;;;;;5036661;28;20107;-82
2023/04/11 03:46:49;;;;;;;3.15;1.30;;;;;;;;;;5037523;28;20511;-83
2023/04/11 03:49:17;;;;;;;1.17;0.70;;;;;;;;;;5033579;28;20037;-83
2023/04/11 03:51:51;;;;;;;1.88;0.90;;;;;;;;;;5037523;28;20067;-83
2023/04/11 03:54:19;;;;;;;3.17;0.90;;;;;;;;;;5035258;28;20048;-83
2023/04/11 03:57:13;;;;;;;2.40;0.80;;;;;;;;;;5049758;28;20053;-83
2023/04/11 03:59:41;;;;;;;2.38;0.95;;;;;;;;;;5020462;28;20496;-83
2023/04/11 04:02:11;;;;;;;1.10;0.60;;;;;;;;;;5018215;28;20088;-83
2023/04/11 04:04:47;;;;;;;2.25;0.77;;;;;;;;;;5033434;28;20037;-83
2023/04/11 04:07:24;;;;;;;2.17;0.73;;;;;;;;;;5037482;28;20041;-83
2023/04/11 04:09:57;;;;;;;1.75;0.63;;;;;;;;;;5034308;28;20091;-83
2023/04/11 04:12:25;;;;;;;1.85;0.70;;;;;;;;;;5036319;28;20078;-83
2023/04/11 04:15:06;;;;;;;1.63;0.73;;;;;;;;;;5052168;28;20059;-83
2023/04/11 04:18:17;;;;;;;3.17;0.95;;;;;;;;;;5022894;28;20078;-83
2023/04/11 04:21:11;;;;;;;3.13;0.77;;;;;;;;;;5037120;28;20037;-83
2023/04/11 04:23:46;;;;;;;1.52;0.77;;;;;;;;;;5033058;28;20061;-83
2023/04/11 04:26:31;;;;;;;2.70;1.00;;;;;;;;;;5037829;28;20048;-83
2023/04/11 04:29:16;;;;;;;1.50;0.60;;;;;;;;;;5022983;28;20483;-83
2023/04/11 04:31:55;;;;;;;4.32;0.85;;;;;;;;;;5035846;28;20499;-83
2023/04/11 04:35:06;;;;;;;1.75;0.60;;;;;;;;;;5037341;28;20040;-83
2023/04/11 04:37:46;;;;;;;1.83;0.85;;;;;;;;;;5021198;28;20060;-83
2023/04/11 04:40:36;;;;;;;2.42;1.10;;;;;;;;;;5022115;28;20045;-82
2023/04/11 04:43:07;;;;;;;1.38;0.70;;;;;;;;;;5031926;28;20033;-83
2023/04/11 04:45:41;;;;;;;2.10;0.77;;;;;;;;;;5037617;28;20095;-83
2023/04/11 04:48:12;;;;;;;1.95;0.73;;;;;;;;;;5016103;28;20476;-83
2023/04/11 04:50:39;;;;;;;4.78;1.05;;;;;;;;;;5034486;28;20555;-83
2023/04/11 04:53:15;;;;;;;2.55;0.73;;;;;;;;;;5022898;28;20095;-83
2023/04/11 04:56:07;;;;;;;3.80;0.70;;;;;;;;;;5039107;28;20391;-83
2023/04/11 04:58:59;;;;;;;7.57;1.00;;;;;;;;;;5009036;28;20107;-83
2023/04/11 05:01:50;;;;;;;3.33;0.90;;;;;;;;;;5031229;28;20092;-83
2023/04/11 05:04:37;;;;;;;1.33;0.57;;;;;;;;;;5049043;28;20133;-83
2023/04/11 05:07:14;;;;;;;5.43;1.08;;;;;;;;;;5046913;28;20033;-83
2023/04/11 05:09:51;;;;;;;7.07;0.90;;;;;;;;;;5028948;28;20515;-83
2023/04/11 05:12:25;;;;;;;3.55;0.98;;;;;;;;;;5018781;28;20087;-83
2023/04/11 05:15:24;;;;;;;4.80;1.10;;;;;;;;;;5031731;28;20646;-82
2023/04/11 05:17:53;;;;;;;6.18;1.05;;;;;;;;;;5031022;28;20057;-82
2023/04/11 05:20:23;;;;;;;3.55;1.00;;;;;;;;;;5035086;28;20135;-83
2023/04/11 05:22:52;;;;;;;3.10;1.02;;;;;;;;;;5047969;28;20507;-82
2023/04/11 05:25:21;;;;;;;2.60;1.20;;;;;;;;;;5034360;28;20042;-82
2023/04/11 05:27:51;;;;;;;6.82;1.45;;;;;;;;;;5030464;28;20060;-83
2023/04/11 05:30:25;;;;;;;4.28;1.20;;;;;;;;;;5018959;28;20065;-83
2023/04/11 05:36:13;;;;;;;4.05;0.80;;;;;;;;;;5032769;28;20049;-83
2023/04/11 05:38:42;;;;;;;4.22;1.13;;;;;;;;;;5035664;28;20102;-82
2023/04/11 05:41:15;;;;;;;3.40;0.98;;;;;;;;;;5051912;28;20406;-82
2023/04/11 05:44:07;;;;;;;5.35;0.90;;;;;;;;;;5036359;28;20036;-82
2023/04/11 05:46:59;;;;;;;5.45;1.33;;;;;;;;;;5049520;28;20040;-83
2023/04/11 05:49:31;;;;;;;3.53;1.08;;;;;;;;;;5034932;28;20049;-82
2023/04/11 05:51:59;;;;;;;7.80;1.10;;;;;;;;;;5016945;28;20535;-82
2023/04/11 05:54:32;;;;;;;2.63;1.08;;;;;;;;;;5031309;28;20040;-82
2023/04/11 05:57:01;;;;;;;3.00;1.20;;;;;;;;;;5035788;28;20068;-82
2023/04/11 05:59:32;;;;;;;4.03;1.25;;;;;;;;;;5029184;28;20049;-82
2023/04/11 06:01:59;;;;;;;4.15;1.13;;;;;;;;;;5033209;28;20037;-82
2023/04/11 06:04:27;;;;;;;5.60;1.30;;;;;;;;;;5035515;28;20033;-82
2023/04/11 06:09:47;;;;;;;3.28;1.23;;;;;;;;;;5034669;28;20128;-82
2023/04/11 06:12:15;;;;;;;4.68;1.02;;;;;;;;;;5032426;28;20517;-82
2023/04/11 06:14:47;;;;;;;2.58;0.90;;;;;;;;;;5041108;28;20120;-82
2023/04/11 06:17:19;;;;;;;3.78;1.05;;;;;;;;;;5035054;28;20033;-82
2023/04/11 06:19:47;;;;;;;4.68;1.17;;;;;;;;;;5040762;28;20496;-82
2023/04/11 06:22:19;;;;;;;3.13;1.17;;;;;;;;;;5036978;28;20091;-82
2023/04/11 06:24:47;;;;;;;6.22;1.33;;;;;;;;;;5038929;28;20124;-82
2023/04/11 06:27:15;;;;;;;2.05;0.80;;;;;;;;;;5036482;28;20492;-82
2023/04/11 06:29:47;;;;;;;2.03;0.90;;;;;;;;;;5038383;28;20153;-82
2023/04/11 06:32:20;;;;;;;5.85;1.25;;;;;;;;;;5030413;28;20033;-82
2023/04/11 06:34:47;;;;;;;3.40;1.17;;;;;;;;;;5049712;28;20546;-82
2023/04/11 06:37:19;;;;;;;5.72;1.35;;;;;;;;;;5023978;28;20098;-82
2023/04/11 06:39:47;;;;;;;3.72;1.35;;;;;;;;;;5032107;28;20084;-82
2023/04/11 06:42:15;;;;;;;5.35;1.42;;;;;;;;;;5037830;28;20041;-82
2023/04/11 06:44:49;;;;;;;4.35;1.42;;;;;;;;;;5007069;28;20037;-82
2023/04/11 06:47:17;;;;;;;7.47;1.70;;;;;;;;;;5039326;28;20111;-82
2023/04/11 06:50:10;;;;;;;5.18;1.50;;;;;;;;;;5035186;28;20037;-82
2023/04/11 06:52:39;;;;;;;6.85;2.58;;;;;;;;;;5022549;28;20042;-82
2023/04/11 06:55:08;;;;;;;10.80;3.03;;;;;;;;;;5023255;28;20115;-82
2023/04/11 06:57:35;;;;;;;8.15;2.80;;;;;;;;;;5037505;28;20146;-82
2023/04/11 07:00:27;;;;;;;6.25;2.60;;;;;;;;;;5032487;28;20037;-82
2023/04/11 07:02:55;;;;;;;7.65;2.75;;;;;;;;;;5036925;28;20064;-82
2023/04/11 07:05:36;;;;;;;4.10;2.80;;;;;;;;;;5037527;28;20055;-82
2023/04/11 07:08:05;;;;;;;7.07;2.90;;;;;;;;;;5037883;28;20060;-82
2023/04/11 07:10:37;;;;;;;6.82;3.08;;;;;;;;;;5037884;28;20041;-82
2023/04/11 07:13:05;;;;;;;5.35;2.58;;;;;;;;;;5039309;28;20110;-82
2023/04/11 07:16:02;;;;;;;5.38;2.42;;;;;;;;;;5038322;28;20030;-82
2023/04/11 07:18:30;;;;;;;5.68;2.33;;;;;;;;;;5032967;28;20037;-82
2023/04/11 07:20:57;;;;;;;3.85;1.90;;;;;;;;;;5038583;28;20048;-82
2023/04/11 07:23:25;;;;;;;8.48;2.20;;;;;;;;;;5021667;28;20128;-82
2023/04/11 07:25:54;;;;;;;6.07;1.90;;;;;;;;;;5034586;28;20443;-82
2023/04/11 07:28:22;;;;;;;3.22;1.13;;;;;;;;;;5037041;28;20045;-82
2023/04/11 07:30:49;;;;;;;2.45;0.90;;;;;;;;;;5032971;28;20048;-82
2023/04/11 07:33:17;;;;;;;2.92;0.95;;;;;;;;;;5035364;28;20559;-82
2023/04/11 07:35:45;;;;;;;1.63;0.80;;;;;;;;;;5040462;28;20037;-82
2023/04/11 07:38:37;;;;;;;2.15;0.60;;;;;;;;;;5038161;28;20502;-82
2023/04/11 07:41:06;;;;;;;1.75;0.70;;;;;;;;;;5036094;28;20131;-82
2023/04/11 07:43:39;;;;;;;0.63;0.50;;;;;;;;;;5052111;28;20033;-82
2023/04/11 07:46:13;;;;;;;1.80;0.90;;;;;;;;;;5039690;28;20045;-82
2023/04/11 07:48:42;;;;;;;1.27;0.70;;;;;;;;;;5049864;28;20139;-82
2023/04/11 07:51:09;;;;;;;2.80;0.60;;;;;;;;;;5037482;28;20040;-82
2023/04/11 07:53:46;;;;;;;1.02;0.60;;;;;;;;;;5038406;28;20967;-82
2023/04/11 07:56:14;;;;;;;6.28;0.68;;;;;;;;;;5004614;28;20142;-82
2023/04/11 07:58:41;;;;;;;1.17;0.50;;;;;;;;;;5035172;28;20053;-82
2023/04/11 08:01:20;;;;;;;1.75;0.60;;;;;;;;;;5034356;28;20109;-82
2023/04/11 08:03:47;;;;;;;1.48;0.57;;;;;;;;;;5036999;28;20045;-83
2023/04/11 08:06:15;;;;;;;2.22;0.80;;;;;;;;;;5032164;28;20064;-82
2023/04/11 08:08:48;;;;;;;2.38;0.57;;;;;;;;;;5032159;28;20045;-82
2023/04/11 08:11:15;;;;;;;2.67;0.60;;;;;;;;;;5034920;28;20068;-82
2023/04/11 08:13:43;;;;;;;1.77;0.60;;;;;;;;;;5036329;28;20095;-82
2023/04/11 08:16:15;;;;;;;0.63;0.43;;;;;;;;;;5037854;28;20099;-82
2023/04/11 08:18:44;;;;;;;5.05;0.80;;;;;;;;;;5034790;28;20076;-82
2023/04/11 08:21:11;;;;;;;1.67;0.60;;;;;;;;;;5035652;28;20889;-82
2023/04/11 08:23:40;;;;;;;1.08;0.52;;;;;;;;;;5050350;28;20037;-82
2023/04/11 08:26:11;;;;;;;1.83;0.80;;;;;;;;;;5033729;28;20120;-82
2023/04/11 08:28:39;;;;;;;2.13;0.70;;;;;;;;;;5051367;28;21869;-82
2023/04/11 08:31:11;;;;;;;2.83;1.13;;;;;;;;;;5034550;28;20130;-82
2023/04/11 08:33:39;;;;;;;1.98;0.95;;;;;;;;;;5005454;28;20049;-82
2023/04/11 08:36:08;;;;;;;3.05;0.85;;;;;;;;;;5036573;28;20507;-82
2023/04/11 08:38:45;;;;;;;2.85;0.70;;;;;;;;;;5037243;28;20503;-82
2023/04/11 08:41:13;;;;;;;1.90;0.70;;;;;;;;;;5034300;28;20055;-82
2023/04/11 08:43:46;;;;;;;1.98;0.80;;;;;;;;;;5033824;28;20042;-82
2023/04/11 08:46:13;;;;;;;1.50;0.80;;;;;;;;;;5013858;28;20117;-82
2023/04/11 08:48:41;;;;;;;1.52;0.80;;;;;;;;;;5032643;28;20095;-82
2023/04/11 08:51:11;;;;;;;4.25;1.02;;;;;;;;;;5035053;28;20073;-82
2023/04/11 08:53:40;;;;;;;5.15;1.30;;;;;;;;;;5035094;28;20140;-82
2023/04/11 08:56:34;;;;;;;4.03;0.90;;;;;;;;;;5032185;28;20053;-82
2023/04/11 08:59:01;;;;;;;1.85;0.98;;;;;;;;;;5026761;28;20048;-82
2023/04/11 09:01:36;;;;;;;3.85;1.10;;;;;;;;;;5026388;28;20132;-82
2023/04/11 09:04:04;;;;;;;1.75;1.00;;;;;;;;;;5032725;28;20421;-82
2023/04/11 09:06:32;;;;;;;1.77;0.82;;;;;;;;;;5029539;28;20037;-83
2023/04/11 09:09:04;;;;;;;2.92;1.10;;;;;;;;;;5034166;28;20049;-81
2023/04/11 09:11:50;;;;;;;4.03;1.60;;;;;;;;;;5029593;28;20507;-82
2023/04/11 09:14:22;;;;;;;6.53;1.77;;;;;;;;;;5044488;28;20422;-83
2023/04/11 09:16:56;;;;;;;4.05;1.50;;;;;;;;;;5030020;28;20049;-82
2023/04/11 09:19:24;;;;;;;3.78;1.52;;;;;;;;;;5047145;28;20045;-82
2023/04/11 09:22:05;;;;;;;3.50;1.67;;;;;;;;;;5035716;28;20046;-82
2023/04/11 09:24:35;;;;;;;6.10;2.35;;;;;;;;;;5035527;28;20132;-82
2023/04/11 09:27:27;;;;;;;4.43;1.83;;;;;;;;;;5033397;28;20037;-82
2023/04/11 09:29:55;;;;;;;4.55;2.13;;;;;;;;;;5032682;28;20041;-82
2023/04/11 09:32:34;;;;;;;7.03;2.90;;;;;;;;;;5047437;28;20115;-82
2023/04/11 09:35:19;;;;;;;4.57;2.38;;;;;;;;;;5035238;28;20077;-82
2023/04/11 09:37:55;;;;;;;7.40;2.25;;;;;;;;;;5050817;28;20131;-82
2023/04/11 09:40:47;;;;;;;5.75;2.35;;;;;;;;;;5030392;28;20048;-82
2023/04/11 09:43:15;;;;;;;5.57;2.28;;;;;;;;;;5036558;28;20052;-82
2023/04/11 09:45:45;;;;;;;4.60;2.20;;;;;;;;;;5036716;28;20052;-83
2023/04/11 09:48:23;;;;;;;5.75;2.40;;;;;;;;;;5037792;28;20076;-82
2023/04/11 09:51:11;;;;;;;6.90;2.22;;;;;;;;;;5036624;28;20503;-82
2023/04/11 09:54:00;;;;;;;5.53;2.53;;;;;;;;;;5043531;28;20076;-83
2023/04/11 09:56:29;;;;;;;10.07;2.60;;;;;;;;;;5039150;28;20069;-83
2023/04/11 09:58:59;;;;;;;7.13;2.42;;;;;;;;;;5038485;28;20127;-83
2023/04/11 10:01:32;;;;;;;5.50;2.60;;;;;;;;;;5037027;28;20052;-83
2023/04/11 10:04:26;;;;;;;6.20;3.78;;;;;;;;;;5034931;28;20073;-82
2023/04/11 10:07:13;;;;;;;4.22;2.15;;;;;;;;;;5035146;28;20547;-82
2023/04/11 10:09:42;;;;;;;5.15;2.15;;;;;;;;;;5035493;28;20051;-82
2023/04/11 10:12:09;;;;;;;4.82;2.20;;;;;;;;;;5035344;28;20480;-82
2023/04/11 10:14:37;;;;;;;7.72;1.70;;;;;;;;;;5038328;28;20158;-83
2023/04/11 10:17:29;;;;;;;2.95;1.40;;;;;;;;;;5035876;28;20071;-82
2023/04/11 10:20:42;;;;;;;4.85;1.60;;;;;;;;;;5034245;28;20044;-82
2023/04/11 10:23:10;;;;;;;4.40;1.30;;;;;;;;;;5039060;28;20120;-83
2023/04/11 10:26:00;;;;;;;5.30;1.42;;;;;;;;;;5053274;28;20052;-83
2023/04/11 10:28:44;;;;;;;2.83;1.48;;;;;;;;;;5038818;28;20069;-83
2023/04/11 10:31:16;;;;;;;2.50;1.27;;;;;;;;;;5052955;28;20041;-83
2023/04/11 10:34:13;;;;;;;3.58;1.58;;;;;;;;;;5036181;28;20257;-83
2023/04/11 10:37:06;;;;;;;1.95;0.95;;;;;;;;;;5038554;28;20041;-83
2023/04/11 10:39:48;;;;;;;4.00;0.90;;;;;;;;;;5038973;28;20068;-82
2023/04/11 10:42:42;;;;;;;2.55;1.00;;;;;;;;;;5051138;28;20035;-83
2023/04/11 10:45:23;;;;;;;8.05;1.08;;;;;;;;;;5035592;28;20033;-83
2023/04/11 10:48:11;;;;;;;2.17;1.05;;;;;;;;;;5038995;28;20049;-83
2023/04/11 10:50:41;;;;;;;2.13;1.10;;;;;;;;;;5024194;28;20044;-82
2023/04/11 10:53:35;;;;;;;1.90;1.10;;;;;;;;;;5038705;28;20061;-83
2023/04/11 10:56:03;;;;;;;2.42;1.10;;;;;;;;;;5034116;28;20091;-83
2023/04/11 10:58:39;;;;;;;3.78;1.27;;;;;;;;;;5039154;28;20038;-83
2023/04/11 11:01:14;;;;;;;2.13;1.27;;;;;;;;;;5033899;28;20403;-82
2023/04/11 11:03:59;;;;;;;3.42;1.40;;;;;;;;;;5036219;28;20045;-83
2023/04/11 11:06:28;;;;;;;2.00;1.15;;;;;;;;;;5018704;28;20450;-82
2023/04/11 11:09:22;;;;;;;3.17;1.02;;;;;;;;;;5038340;28;20118;-83
2023/04/11 11:12:10;;;;;;;5.07;0.93;;;;;;;;;;5035435;28;20119;-82
2023/04/11 11:15:12;;;;;;;3.22;0.50;;;;;;;;;;5032754;28;20056;-83
2023/04/11 11:17:41;;;;;;;2.00;0.98;;;;;;;;;;5036868;28;20077;-83
2023/04/11 11:20:18;;;;;;;2.20;0.73;;;;;;;;;;5037118;28;20045;-83
2023/04/11 11:23:04;;;;;;;1.45;0.55;;;;;;;;;;5051893;28;20045;-83
2023/04/11 11:25:37;;;;;;;1.15;0.40;;;;;;;;;;5036600;28;20099;-83
2023/04/11 11:28:08;;;;;;;1.08;0.40;;;;;;;;;;5037300;28;20042;-82
2023/04/11 11:31:07;;;;;;;0.85;0.50;;;;;;;;;;5032703;28;20512;-82
2023/04/11 11:33:43;;;;;;;0.30;0.25;;;;;;;;;;5037508;28;20152;-82
2023/04/11 11:36:14;;;;;;;0.93;0.40;;;;;;;;;;5036478;28;20033;-83
2023/04/11 11:38:41;;;;;;;1.08;0.32;;;;;;;;;;5037730;28;20041;-83
2023/04/11 11:41:09;;;;;;;1.80;0.52;;;;;;;;;;5018719;28;20048;-82
2023/04/11 11:43:37;;;;;;;2.50;0.55;;;;;;;;;;5040010;28;20065;-83
2023/04/11 11:46:13;;;;;;;1.20;0.38;;;;;;;;;;5033864;28;20041;-82
2023/04/11 11:48:42;;;;;;;1.08;0.50;;;;;;;;;;5037393;28;20073;-82
2023/04/11 11:51:38;;;;;;;1.38;0.52;;;;;;;;;;5035454;28;20063;-83
2023/04/11 11:54:11;;;;;;;1.67;0.50;;;;;;;;;;5038617;28;20072;-83
2023/04/11 11:56:40;;;;;;;1.95;0.63;;;;;;;;;;5036742;28;20034;-82
2023/04/11 11:59:33;;;;;;;1.33;0.50;;;;;;;;;;5031272;28;20511;-82
2023/04/11 12:02:26;;;;;;;1.50;0.80;;;;;;;;;;5031887;28;20052;-82
2023/04/11 12:05:02;;;;;;;2.67;1.35;;;;;;;;;;5034488;28;20508;-82
2023/04/11 12:07:37;;;;;;;2.35;0.73;;;;;;;;;;5035887;28;20550;-83
2023/04/11 12:10:15;;;;;;;1.13;0.70;;;;;;;;;;5032701;28;20099;-83
2023/04/11 12:12:48;;;;;;;1.98;0.50;;;;;;;;;;5047430;28;20049;-82
2023/04/11 12:15:21;;;;;;;1.95;0.50;;;;;;;;;;5033951;28;20241;-83
2023/04/11 12:17:56;;;;;;;1.50;0.52;;;;;;;;;;5035370;28;20134;-82
2023/04/11 12:20:25;;;;;;;1.25;0.30;;;;;;;;;;5030107;28;20072;-83
2023/04/11 12:22:57;;;;;;;0.82;0.40;;;;;;;;;;5034532;28;20038;-82
2023/04/11 12:25:26;;;;;;;2.08;0.65;;;;;;;;;;5039698;28;20106;-83
2023/04/11 12:27:53;;;;;;;2.85;0.60;;;;;;;;;;5036117;28;20041;-82
2023/04/11 12:30:21;;;;;;;2.17;0.60;;;;;;;;;;5036070;28;20041;-83
2023/04/11 12:32:49;;;;;;;2.05;0.60;;;;;;;;;;5033861;28;20399;-82
2023/04/11 12:35:17;;;;;;;1.20;0.50;;;;;;;;;;5053104;28;20140;-83
2023/04/11 12:37:45;;;;;;;2.55;0.95;;;;;;;;;;5019586;28;20045;-83
2023/04/11 12:40:14;;;;;;;0.50;0.40;;;;;;;;;;5036082;28;20041;-82
2023/04/11 12:43:07;;;;;;;1.13;0.35;;;;;;;;;;5035684;28;20134;-82
2023/04/11 12:45:59;;;;;;;1.30;0.50;;;;;;;;;;5037757;28;20111;-83
2023/04/11 12:48:31;;;;;;;2.53;0.40;;;;;;;;;;5032845;28;20068;-83
2023/04/11 12:50:59;;;;;;;2.03;0.57;;;;;;;;;;5035846;28;20047;-83
2023/04/11 12:53:27;;;;;;;2.03;0.77;;;;;;;;;;5030426;28;20040;-83
2023/04/11 12:55:55;;;;;;;1.20;0.50;;;;;;;;;;5048788;28;20490;-83
2023/04/11 12:58:23;;;;;;;3.97;0.55;;;;;;;;;;5036196;28;20068;-83
2023/04/11 13:00:51;;;;;;;3.00;0.60;;;;;;;;;;5026813;28;20043;-83
2023/04/11 13:03:23;;;;;;;0.82;0.50;;;;;;;;;;5033193;28;20563;-83
2023/04/11 13:05:51;;;;;;;1.80;1.00;;;;;;;;;;5038032;28;20036;-83
2023/04/11 13:08:19;;;;;;;2.40;1.05;;;;;;;;;;5033307;28;20037;-82
2023/04/11 13:10:47;;;;;;;4.82;0.73;;;;;;;;;;5036850;28;20068;-83
2023/04/11 13:13:15;;;;;;;1.15;0.60;;;;;;;;;;5035729;28;20132;-82
2023/04/11 13:15:45;;;;;;;1.42;0.60;;;;;;;;;;5036667;28;20392;-82
2023/04/11 13:18:37;;;;;;;2.58;0.65;;;;;;;;;;5043580;28;20045;-82
2023/04/11 13:21:11;;;;;;;1.67;0.80;;;;;;;;;;5033980;28;20061;-83
2023/04/11 13:23:39;;;;;;;3.63;0.70;;;;;;;;;;5049130;28;20041;-82
2023/04/11 13:26:37;;;;;;;3.55;0.80;;;;;;;;;;5032007;28;20043;-82
2023/04/11 13:29:08;;;;;;;2.30;0.82;;;;;;;;;;5016923;28;20122;-82
2023/04/11 13:32:01;;;;;;;2.47;0.93;;;;;;;;;;5034170;28;20033;-82
2023/04/11 13:34:53;;;;;;;2.35;0.70;;;;;;;;;;5034957;28;20042;-82
2023/04/11 13:37:21;;;;;;;7.68;1.05;;;;;;;;;;5034599;28;20029;-83
2023/04/11 13:40:13;;;;;;;6.28;1.08;;;;;;;;;;5017529;28;20132;-82
2023/04/11 13:42:41;;;;;;;3.35;1.00;;;;;;;;;;5032521;28;20087;-82
2023/04/11 13:45:10;;;;;;;5.10;1.52;;;;;;;;;;5034900;28;20052;-83
2023/04/11 13:47:37;;;;;;;6.03;1.02;;;;;;;;;;5033960;28;20029;-83
2023/04/11 13:50:11;;;;;;;2.67;1.02;;;;;;;;;;5019329;28;20045;-83
2023/04/11 13:52:43;;;;;;;6.32;1.00;;;;;;;;;;5035218;28;20511;-83
2023/04/11 13:55:18;;;;;;;2.88;0.90;;;;;;;;;;5005355;28;20059;-83
2023/04/11 13:57:45;;;;;;;2.63;0.95;;;;;;;;;;5035890;28;20124;-83
2023/04/11 14:00:14;;;;;;;10.60;1.27;;;;;;;;;;5027810;28;20045;-83
2023/04/11 14:02:41;;;;;;;5.15;0.90;;;;;;;;;;5031450;28;20098;-83
2023/04/11 14:05:15;;;;;;;3.90;0.98;;;;;;;;;;5046808;28;20049;-83
2023/04/11 14:07:48;;;;;;;9.18;1.77;;;;;;;;;;5031078;28;20500;-83
2023/04/11 14:10:15;;;;;;;3.75;1.15;;;;;;;;;;5048456;28;20041;-83
2023/04/11 14:12:43;;;;;;;3.80;0.95;;;;;;;;;;5034324;28;20091;-83
2023/04/11 14:15:14;;;;;;;4.80;1.10;;;;;;;;;;5012801;28;20053;-83
2023/04/11 14:17:42;;;;;;;7.03;1.40;;;;;;;;;;5048555;28;20025;-83
2023/04/11 14:20:10;;;;;;;6.10;1.17;;;;;;;;;;5033116;28;20519;-83
2023/04/11 14:23:01;;;;;;;4.13;1.02;;;;;;;;;;5021399;28;20029;-83
2023/04/11 14:25:55;;;;;;;5.15;1.13;;;;;;;;;;5034478;28;20123;-83
2023/04/11 14:28:27;;;;;;;4.43;1.15;;;;;;;;;;5003649;28;20103;-83
2023/04/11 14:31:20;;;;;;;6.05;1.42;;;;;;;;;;5034003;28;20050;-83
2023/04/11 14:33:49;;;;;;;2.88;1.30;;;;;;;;;;5032114;28;20034;-83
2023/04/11 14:36:17;;;;;;;5.32;1.33;;;;;;;;;;5034213;28;20377;-83
2023/04/11 14:38:45;;;;;;;7.85;1.83;;;;;;;;;;5039716;28;20091;-83
2023/04/11 14:41:13;;;;;;;4.95;1.67;;;;;;;;;;5050658;28;20045;-83
2023/04/11 14:43:45;;;;;;;10.27;1.58;;;;;;;;;;5037463;28;20049;-83
2023/04/11 14:46:17;;;;;;;7.13;1.58;;;;;;;;;;5038211;28;20049;-83
2023/04/11 14:48:45;;;;;;;5.55;1.65;;;;;;;;;;5038286;28;20132;-84
2023/04/11 14:51:37;;;;;;;5.68;1.55;;;;;;;;;;5038077;28;20034;-83
2023/04/11 14:54:06;;;;;;;4.10;1.50;;;;;;;;;;5036245;28;20087;-84
2023/04/11 14:56:33;;;;;;;5.90;1.35;;;;;;;;;;5024378;28;20495;-83
2023/04/11 14:59:27;;;;;;;8.13;1.58;;;;;;;;;;5037032;28;20029;-84
2023/04/11 15:01:55;;;;;;;3.78;1.75;;;;;;;;;;5020991;28;20049;-83
2023/04/11 15:04:23;;;;;;;4.97;1.73;;;;;;;;;;5040002;28;20084;-83
2023/04/11 15:06:52;;;;;;;5.82;1.30;;;;;;;;;;5039791;28;20454;-83
2023/04/11 15:09:26;;;;;;;7.82;1.60;;;;;;;;;;5003720;28;20518;-83
2023/04/11 15:11:53;;;;;;;5.97;1.83;;;;;;;;;;5037482;28;20088;-83
2023/04/11 15:14:28;;;;;;;7.82;1.98;;;;;;;;;;5038236;28;20037;-84
2023/04/11 15:16:55;;;;;;;5.60;1.70;;;;;;;;;;5032080;28;20127;-83
2023/04/11 15:19:24;;;;;;;5.55;1.65;;;;;;;;;;5035637;28;20103;-83
2023/04/11 15:21:51;;;;;;;6.32;1.88;;;;;;;;;;5032564;28;20561;-83
2023/04/11 15:24:20;;;;;;;6.28;1.80;;;;;;;;;;5050301;28;20065;-83
2023/04/11 15:26:47;;;;;;;5.05;1.80;;;;;;;;;;5007410;28;20049;-83
2023/04/11 15:29:15;;;;;;;4.18;1.85;;;;;;;;;;5035502;28;20332;-83
2023/04/11 15:31:43;;;;;;;4.93;1.50;;;;;;;;;;5032836;28;20037;-83
2023/04/11 15:34:15;;;;;;;7.72;2.15;;;;;;;;;;5038477;28;20124;-84
2023/04/11 15:36:44;;;;;;;12.20;2.08;;;;;;;;;;5038176;28;20041;-83
2023/04/11 15:39:11;;;;;;;6.47;1.55;;;;;;;;;;5021432;28;20402;-84
2023/04/11 15:42:05;;;;;;;5.50;1.65;;;;;;;;;;5019549;28;20045;-83
2023/04/11 15:44:57;;;;;;;4.00;1.55;;;;;;;;;;5036773;28;20052;-83
2023/04/11 15:47:49;;;;;;;6.53;1.67;;;;;;;;;;5037322;28;20035;-83
2023/04/11 15:50:17;;;;;;;5.90;1.75;;;;;;;;;;5037864;28;20041;-83